Time;durP1;ratioP1;P1;durP2;ratioP2;P2;SDS_P1;SDS_P2;PMS_P1;PMS_P2;Temp;Humidity;BMP_temperature;BMP_pressure;BME280_temperature;BME280_humidity;BME280_pressure;Samples;Min_cycle;Max_cycle;Signal;HPM_P1;HPM_P2
2021/03/07 00:00:23;;;;;;;43.50;25.98;;;;;;;-2.14;100.00;100019.06;2090792;28;20191;-73
2021/03/07 00:01:45;;;;;;;45.88;24.88;;;;;;;-2.21;100.00;100014.78;2084761;28;20199;-72
2021/03/07 00:03:05;;;;;;;47.55;26.83;;;;;;;-2.25;100.00;100018.78;2091143;28;20301;-73
2021/03/07 00:04:24;;;;;;;49.92;26.92;;;;;;;-2.24;100.00;100026.41;2091592;28;20210;-73
2021/03/07 00:05:41;;;;;;;46.80;26.00;;;;;;;-2.22;100.00;100024.41;2091742;28;20190;-74
2021/03/07 00:07:04;;;;;;;45.70;24.77;;;;;;;-2.24;100.00;100025.63;2091669;28;20186;-74
2021/03/07 00:08:30;;;;;;;42.80;24.67;;;;;;;-2.28;100.00;100025.97;2091518;28;20182;-74
2021/03/07 00:09:47;;;;;;;44.65;26.30;;;;;;;-2.25;100.00;100026.63;2090170;28;20209;-72
2021/03/07 00:11:06;;;;;;;47.50;24.80;;;;;;;-2.29;100.00;100013.91;2091035;28;20198;-74
2021/03/07 00:12:27;;;;;;;43.65;24.45;;;;;;;-2.22;100.00;100026.22;2091507;28;20221;-74
2021/03/07 00:13:51;;;;;;;42.75;24.60;;;;;;;-2.30;100.00;100016.72;2091391;28;20248;-74
2021/03/07 00:15:11;;;;;;;40.45;23.48;;;;;;;-2.16;100.00;100013.22;2091404;28;20653;-74
2021/03/07 00:16:34;;;;;;;55.03;24.75;;;;;;;-2.23;100.00;100006.31;2091430;28;20197;-74
2021/03/07 00:17:54;;;;;;;46.42;25.52;;;;;;;-2.22;100.00;100013.97;2089735;28;20209;-74
2021/03/07 00:19:12;;;;;;;41.45;24.85;;;;;;;-2.24;100.00;100017.78;2091009;28;20745;-74
2021/03/07 00:20:35;;;;;;;43.20;25.25;;;;;;;-2.27;100.00;100011.09;2090637;28;20198;-73
2021/03/07 00:21:58;;;;;;;41.47;24.67;;;;;;;-2.21;100.00;100014.78;2091015;28;20180;-73
2021/03/07 00:23:20;;;;;;;42.13;24.50;;;;;;;-2.23;100.00;100011.56;2091400;28;20190;-73
2021/03/07 00:24:41;;;;;;;48.60;25.35;;;;;;;-2.24;100.00;100010.75;2089976;28;20286;-73
2021/03/07 00:26:03;;;;;;;46.65;25.23;;;;;;;-2.20;100.00;100008.53;2091075;28;20282;-73
2021/03/07 00:27:32;;;;;;;40.10;23.58;;;;;;;-2.21;100.00;100010.34;2090550;28;20194;-73
2021/03/07 00:28:56;;;;;;;41.28;23.77;;;;;;;-2.21;100.00;100004.31;2090969;28;20203;-73
2021/03/07 00:30:18;;;;;;;49.95;26.08;;;;;;;-2.22;100.00;100000.91;2090414;28;20207;-73
2021/03/07 00:31:34;;;;;;;41.70;23.92;;;;;;;-2.15;100.00;99998.34;2090882;28;20201;-74
2021/03/07 00:32:58;;;;;;;50.05;24.42;;;;;;;-2.19;100.00;99989.25;2091602;28;20194;-74
2021/03/07 00:34:19;;;;;;;48.45;26.08;;;;;;;-2.18;100.00;99983.03;2090401;28;20225;-73
2021/03/07 00:35:41;;;;;;;45.33;25.60;;;;;;;-2.15;99.62;99977.44;2084130;28;20240;-72
2021/03/07 00:36:59;;;;;;;39.85;24.98;;;;;;;-2.17;99.62;99974.19;2091005;28;20183;-74
2021/03/07 00:38:21;;;;;;;41.50;25.42;;;;;;;-2.16;99.15;99970.59;2091245;28;20182;-74
2021/03/07 00:39:44;;;;;;;40.65;25.67;;;;;;;-2.18;99.36;99962.91;2088724;28;20214;-74
2021/03/07 00:41:03;;;;;;;46.30;23.95;;;;;;;-2.19;99.60;99963.09;2090974;28;20205;-72
2021/03/07 00:42:33;;;;;;;39.60;24.63;;;;;;;-2.13;99.67;99960.53;2089252;28;20654;-72
2021/03/07 00:43:53;;;;;;;43.15;26.02;;;;;;;-2.23;99.49;99957.47;2091032;28;20199;-75
2021/03/07 00:45:16;;;;;;;41.53;25.13;;;;;;;-2.32;99.63;99942.94;2088822;28;20206;-74
2021/03/07 00:46:35;;;;;;;44.45;25.13;;;;;;;-2.24;100.00;99949.81;2084916;28;20234;-74
2021/03/07 00:47:56;;;;;;;42.72;26.23;;;;;;;-2.25;99.35;99942.97;2090772;28;20195;-74
2021/03/07 00:49:13;;;;;;;42.97;25.52;;;;;;;-2.22;99.63;99951.25;2091201;28;20549;-74
2021/03/07 00:50:37;;;;;;;38.83;24.40;;;;;;;-2.21;98.86;99942.41;2090480;28;20191;-74
2021/03/07 00:51:58;;;;;;;40.83;24.20;;;;;;;-2.16;98.93;99944.44;2090785;28;20605;-74
2021/03/07 00:53:20;;;;;;;41.28;24.48;;;;;;;-2.14;99.08;99940.63;2091279;28;20653;-74
2021/03/07 00:54:43;;;;;;;42.60;25.27;;;;;;;-2.20;99.25;99933.56;2091152;28;20195;-74
2021/03/07 00:56:04;;;;;;;46.50;24.95;;;;;;;-2.20;98.73;99927.53;2091172;28;20689;-74
2021/03/07 00:57:34;;;;;;;41.55;25.55;;;;;;;-2.26;99.47;99929.09;2089940;28;20248;-74
2021/03/07 00:58:53;;;;;;;43.45;25.77;;;;;;;-2.34;99.35;99908.34;2090886;28;20214;-73
2021/03/07 01:00:15;;;;;;;39.50;23.27;;;;;;;-2.29;99.21;99925.06;2090365;28;20264;-72
2021/03/07 01:01:33;;;;;;;39.92;23.80;;;;;;;-2.33;99.52;99928.25;2092308;28;20665;-73
2021/03/07 01:03:01;;;;;;;41.75;24.65;;;;;;;-2.30;99.57;99917.41;2096603;28;20272;-74
2021/03/07 01:04:22;;;;;;;35.95;23.25;;;;;;;-2.25;98.90;99924.69;2089318;28;20199;-73
2021/03/07 01:05:43;;;;;;;42.40;24.75;;;;;;;-2.29;98.84;99924.25;2083724;28;20200;-73
2021/03/07 01:07:03;;;;;;;41.53;25.35;;;;;;;-2.21;99.17;99925.91;2090694;28;20198;-72
2021/03/07 01:08:22;;;;;;;42.25;24.73;;;;;;;-2.25;99.21;99925.50;2090279;28;20600;-74
2021/03/07 01:09:48;;;;;;;40.22;25.63;;;;;;;-2.25;99.56;99920.25;2090631;28;20195;-74
2021/03/07 01:11:07;;;;;;;43.53;24.33;;;;;;;-2.21;99.25;99916.25;2090975;28;20206;-74
2021/03/07 01:12:27;;;;;;;49.50;24.75;;;;;;;-2.26;99.78;99910.78;2091107;28;20187;-74
2021/03/07 01:13:48;;;;;;;41.40;24.27;;;;;;;-2.33;99.97;99904.72;2091128;28;20645;-72
2021/03/07 01:15:05;;;;;;;42.85;24.23;;;;;;;-2.30;99.56;99901.72;2089447;28;20203;-72
2021/03/07 01:16:22;;;;;;;37.35;24.13;;;;;;;-2.31;99.75;99906.16;2083012;28;20302;-73
2021/03/07 01:17:49;;;;;;;39.60;23.95;;;;;;;-2.25;99.82;99907.19;2090515;28;20269;-74
2021/03/07 01:19:09;;;;;;;38.20;23.60;;;;;;;-2.28;99.15;99905.75;2091181;28;20201;-73
2021/03/07 01:20:28;;;;;;;43.58;24.02;;;;;;;-2.27;98.91;99898.72;2090967;28;20204;-73
2021/03/07 01:21:51;;;;;;;36.97;24.40;;;;;;;-2.30;98.97;99902.53;2091206;28;20638;-74
2021/03/07 01:23:10;;;;;;;34.17;22.88;;;;;;;-2.32;99.40;99893.28;2088060;28;20226;-73
2021/03/07 01:24:34;;;;;;;32.03;23.35;;;;;;;-2.38;99.05;99894.84;2082058;28;20203;-73
2021/03/07 01:25:56;;;;;;;42.03;24.17;;;;;;;-2.31;99.20;99890.47;2084084;28;20252;-74
2021/03/07 01:27:16;;;;;;;36.97;23.60;;;;;;;-2.27;99.10;99890.88;2082249;28;20211;-73
2021/03/07 01:28:42;;;;;;;33.85;23.02;;;;;;;-2.26;98.45;99889.88;2090306;28;20194;-73
2021/03/07 01:30:07;;;;;;;41.88;23.20;;;;;;;-2.29;98.81;99883.25;2089416;28;20203;-74
2021/03/07 01:31:26;;;;;;;34.83;22.40;;;;;;;-2.28;98.43;99874.41;2090696;28;20187;-73
2021/03/07 01:32:46;;;;;;;39.85;24.65;;;;;;;-2.28;98.03;99877.00;2089990;28;20572;-72
2021/03/07 01:34:09;;;;;;;42.63;23.88;;;;;;;-2.28;98.54;99869.16;2092778;28;20333;-73
2021/03/07 01:35:32;;;;;;;40.22;22.92;;;;;;;-2.29;98.46;99867.56;2096258;28;20245;-72
2021/03/07 01:36:51;;;;;;;36.97;23.00;;;;;;;-2.36;98.20;99856.25;2090910;28;20650;-72
2021/03/07 01:38:13;;;;;;;41.13;24.25;;;;;;;-2.34;99.01;99869.97;2090875;28;20187;-74
2021/03/07 01:39:28;;;;;;;38.92;23.83;;;;;;;-2.31;98.75;99864.34;2090819;28;20672;-74
2021/03/07 01:40:49;;;;;;;38.83;22.83;;;;;;;-2.30;98.40;99852.06;2090893;28;20226;-75
2021/03/07 01:42:18;;;;;;;37.15;23.23;;;;;;;-2.37;98.70;99848.59;2090721;28;20681;-74
2021/03/07 01:43:43;;;;;;;34.95;22.48;;;;;;;-2.36;98.60;99843.19;2090127;28;20562;-74
2021/03/07 01:45:04;;;;;;;40.65;23.48;;;;;;;-2.38;98.67;99863.47;2090541;28;20191;-75
2021/03/07 01:46:28;;;;;;;34.60;23.15;;;;;;;-2.38;98.42;99849.63;2090980;28;20187;-74
2021/03/07 01:47:50;;;;;;;43.50;24.63;;;;;;;-2.47;98.73;99838.50;2089886;28;20685;-74
2021/03/07 01:49:10;;;;;;;39.30;23.77;;;;;;;-2.47;99.73;99837.72;2082196;28;20251;-73
2021/03/07 01:50:28;;;;;;;38.15;23.38;;;;;;;-2.38;99.54;99839.16;2084583;28;20203;-73
2021/03/07 01:51:56;;;;;;;39.60;23.45;;;;;;;-2.38;99.24;99839.97;2090350;28;20277;-74
2021/03/07 01:53:17;;;;;;;36.63;22.27;;;;;;;-2.43;99.01;99838.91;2088973;28;20591;-73
2021/03/07 01:54:37;;;;;;;43.72;23.75;;;;;;;-2.56;99.10;99830.00;2090419;28;20194;-73
2021/03/07 01:55:59;;;;;;;35.58;22.13;;;;;;;-2.53;99.85;99828.00;2090640;28;20218;-74
2021/03/07 01:57:15;;;;;;;36.50;23.13;;;;;;;-2.49;99.77;99835.28;2090693;28;20210;-73
2021/03/07 01:58:45;;;;;;;46.28;24.25;;;;;;;-2.49;99.94;99832.69;2089994;28;20191;-73
2021/03/07 02:00:06;;;;;;;34.75;22.55;;;;;;;-2.57;99.48;99820.56;2090499;28;20463;-73
2021/03/07 02:01:30;;;;;;;30.75;22.02;;;;;;;-2.45;98.96;99836.50;2090670;28;20182;-73
2021/03/07 02:02:46;;;;;;;36.30;22.92;;;;;;;-2.41;99.34;99832.53;2089847;28;20547;-73
2021/03/07 02:04:10;;;;;;;35.35;22.85;;;;;;;-2.46;99.43;99837.50;2090189;28;20278;-73
2021/03/07 02:05:28;;;;;;;34.47;22.48;;;;;;;-2.42;98.89;99828.31;2090619;28;20677;-73
2021/03/07 02:06:48;;;;;;;35.67;22.55;;;;;;;-2.47;99.27;99822.03;2089895;28;20186;-73
2021/03/07 02:08:11;;;;;;;38.58;22.83;;;;;;;-2.35;98.83;99836.97;2082262;28;20191;-74
2021/03/07 02:09:30;;;;;;;32.22;21.92;;;;;;;-2.38;99.33;99837.34;2090161;28;20281;-73
2021/03/07 02:10:49;;;;;;;34.65;21.45;;;;;;;-2.34;98.55;99833.38;2089825;28;20194;-73
2021/03/07 02:12:06;;;;;;;33.88;22.23;;;;;;;-2.36;98.65;99839.78;2090156;28;20264;-73
2021/03/07 02:13:32;;;;;;;34.42;21.80;;;;;;;-2.42;99.57;99836.13;2088852;28;20320;-73
2021/03/07 02:14:57;;;;;;;35.70;22.05;;;;;;;-2.43;99.55;99829.31;2090394;28;20649;-73
2021/03/07 02:16:31;;;;;;;37.63;22.73;;;;;;;-2.47;99.82;99827.25;2090591;28;20248;-72
2021/03/07 02:17:47;;;;;;;38.28;22.33;;;;;;;-2.46;100.00;99829.66;2090489;28;20675;-72
2021/03/07 02:19:10;;;;;;;35.70;22.88;;;;;;;-2.47;100.00;99830.66;2090740;28;20191;-74
2021/03/07 02:20:26;;;;;;;39.78;22.48;;;;;;;-2.44;100.00;99827.66;2089768;28;20202;-73
2021/03/07 02:21:53;;;;;;;36.50;22.38;;;;;;;-2.46;100.00;99824.44;2089994;28;20621;-73
2021/03/07 02:23:20;;;;;;;38.25;23.75;;;;;;;-2.46;100.00;99821.84;2090446;28;20275;-74
2021/03/07 02:24:43;;;;;;;40.08;22.20;;;;;;;-2.39;100.00;99825.28;2090579;28;20256;-74
2021/03/07 02:26:12;;;;;;;28.67;19.40;;;;;;;-2.41;100.00;99823.88;2090496;28;20202;-74
2021/03/07 02:27:33;;;;;;;30.73;21.08;;;;;;;-2.39;99.89;99814.03;2089672;28;20265;-75
2021/03/07 02:28:56;;;;;;;34.08;21.73;;;;;;;-2.41;100.00;99824.69;2090157;28;20669;-74
2021/03/07 02:30:13;;;;;;;29.48;20.30;;;;;;;-2.37;100.00;99825.09;2089726;28;20206;-73
2021/03/07 02:31:33;;;;;;;34.50;21.77;;;;;;;-2.37;99.73;99828.50;2083322;28;20203;-72
2021/03/07 02:32:51;;;;;;;31.23;21.15;;;;;;;-2.31;99.52;99825.13;2084252;28;20587;-75
2021/03/07 02:34:18;;;;;;;30.70;21.15;;;;;;;-2.33;99.72;99824.53;2091061;28;20248;-74
2021/03/07 02:35:39;;;;;;;34.47;20.95;;;;;;;-2.38;99.45;99811.22;2095401;28;20268;-74
2021/03/07 02:37:03;;;;;;;32.70;20.33;;;;;;;-2.40;99.48;99817.66;2089390;28;20202;-72
2021/03/07 02:38:28;;;;;;;34.63;20.60;;;;;;;-2.40;99.70;99815.84;2088661;28;20195;-74
2021/03/07 02:39:50;;;;;;;26.67;19.60;;;;;;;-2.39;99.72;99822.69;2090254;28;20290;-73
2021/03/07 02:41:14;;;;;;;28.13;20.27;;;;;;;-2.33;98.87;99819.31;2090405;28;20187;-72
2021/03/07 02:42:37;;;;;;;29.02;19.67;;;;;;;-2.27;99.10;99823.72;2090644;28;20209;-72
2021/03/07 02:44:00;;;;;;;30.95;19.63;;;;;;;-2.25;98.21;99820.16;2090416;28;20221;-72
2021/03/07 02:45:26;;;;;;;26.98;18.73;;;;;;;-2.28;98.50;99822.13;2088602;28;20213;-73
2021/03/07 02:46:49;;;;;;;29.73;19.13;;;;;;;-2.21;98.44;99821.34;2090077;28;20274;-72
2021/03/07 02:48:10;;;;;;;28.83;19.00;;;;;;;-2.21;97.55;99818.75;2090239;28;20195;-72
2021/03/07 02:49:34;;;;;;;25.10;17.65;;;;;;;-2.23;98.09;99813.72;2090412;28;20183;-72
2021/03/07 02:50:53;;;;;;;27.50;19.00;;;;;;;-2.22;98.03;99815.31;2090574;28;20199;-72
2021/03/07 02:52:17;;;;;;;29.88;18.30;;;;;;;-2.22;97.70;99819.75;2090107;28;20653;-72
2021/03/07 02:53:36;;;;;;;24.75;18.38;;;;;;;-2.20;97.96;99807.28;2090388;28;20187;-73
2021/03/07 02:55:02;;;;;;;25.33;18.15;;;;;;;-2.24;97.89;99804.28;2090465;28;20232;-72
2021/03/07 02:56:26;;;;;;;24.10;17.02;;;;;;;-2.22;97.60;99804.88;2090432;28;20320;-73
2021/03/07 02:57:45;;;;;;;27.85;17.33;;;;;;;-2.21;97.32;99805.69;2090294;28;20201;-73
2021/03/07 02:59:05;;;;;;;24.10;17.38;;;;;;;-2.29;97.53;99810.06;2090372;28;20270;-73
2021/03/07 03:00:24;;;;;;;28.67;18.08;;;;;;;-2.31;97.63;99806.03;2090432;28;20220;-73
2021/03/07 03:01:58;;;;;;;26.55;18.38;;;;;;;-2.34;98.39;99799.41;2090412;28;20233;-71
2021/03/07 03:03:25;;;;;;;27.08;18.50;;;;;;;-2.38;98.32;99806.00;2087783;28;20680;-72
2021/03/07 03:04:47;;;;;;;29.30;18.02;;;;;;;-2.29;97.73;99810.06;2090067;28;20191;-74
2021/03/07 03:06:03;;;;;;;24.83;17.63;;;;;;;-2.31;98.07;99799.00;2090461;28;20531;-74
2021/03/07 03:07:24;;;;;;;26.38;16.77;;;;;;;-2.34;97.86;99801.22;2089600;28;20561;-74
2021/03/07 03:08:47;;;;;;;26.17;17.25;;;;;;;-2.42;98.13;99802.19;2089801;28;20195;-74
2021/03/07 03:10:11;;;;;;;22.65;16.58;;;;;;;-2.45;98.83;99799.94;2088492;28;20213;-74
2021/03/07 03:11:32;;;;;;;26.45;17.83;;;;;;;-2.57;99.19;99791.84;2082816;28;20241;-74
2021/03/07 03:13:00;;;;;;;28.25;18.00;;;;;;;-2.44;98.76;99793.69;2089898;28;20210;-72
2021/03/07 03:14:18;;;;;;;25.55;17.00;;;;;;;-2.44;98.34;99801.53;2090279;28;20563;-73
2021/03/07 03:15:40;;;;;;;28.35;17.85;;;;;;;-2.51;98.43;99800.72;2090318;28;20186;-74
2021/03/07 03:17:02;;;;;;;26.17;18.50;;;;;;;-2.44;98.78;99798.94;2088591;28;20202;-72
2021/03/07 03:18:20;;;;;;;27.08;18.58;;;;;;;-2.46;99.05;99797.50;2091255;28;20633;-72
2021/03/07 03:19:49;;;;;;;26.77;17.25;;;;;;;-2.45;98.64;99799.94;2095784;28;20563;-73
2021/03/07 03:21:07;;;;;;;21.98;16.70;;;;;;;-2.47;98.47;99796.72;2090344;28;20194;-73
2021/03/07 03:22:31;;;;;;;27.88;17.80;;;;;;;-2.49;98.52;99801.31;2095415;28;20791;-73
2021/03/07 03:23:47;;;;;;;25.52;18.10;;;;;;;-2.47;98.63;99791.47;2087883;28;20214;-72
2021/03/07 03:25:10;;;;;;;23.58;17.13;;;;;;;-2.42;98.87;99791.72;2089787;28;20193;-74
2021/03/07 03:26:27;;;;;;;22.33;16.73;;;;;;;-2.48;98.36;99784.66;2088368;28;20202;-73
2021/03/07 03:27:53;;;;;;;22.02;17.00;;;;;;;-2.42;98.82;99799.56;2089808;28;20180;-73
2021/03/07 03:29:17;;;;;;;23.95;17.10;;;;;;;-2.41;98.46;99795.13;2090090;28;20289;-73
2021/03/07 03:30:35;;;;;;;24.25;16.00;;;;;;;-2.39;98.37;99793.94;2090234;28;20586;-73
2021/03/07 03:31:56;;;;;;;22.17;16.42;;;;;;;-2.36;98.19;99793.53;2090216;28;20194;-73
2021/03/07 03:33:15;;;;;;;28.05;16.92;;;;;;;-2.37;98.00;99802.38;2089348;28;20645;-72
2021/03/07 03:34:37;;;;;;;26.23;16.35;;;;;;;-2.32;98.32;99792.16;2089925;28;20234;-73
2021/03/07 03:35:53;;;;;;;20.98;16.27;;;;;;;-2.27;98.20;99802.81;2088295;28;20301;-73
2021/03/07 03:37:16;;;;;;;22.02;15.98;;;;;;;-2.35;97.86;99804.81;2089664;28;20207;-74
2021/03/07 03:38:38;;;;;;;27.58;17.20;;;;;;;-2.33;97.91;99798.41;2095259;28;20666;-74
2021/03/07 03:40:03;;;;;;;22.80;16.80;;;;;;;-2.32;97.87;99807.84;2090269;28;20554;-71
2021/03/07 03:41:31;;;;;;;22.02;16.35;;;;;;;-2.38;97.99;99800.78;2089350;28;20677;-73
2021/03/07 03:42:49;;;;;;;26.92;16.35;;;;;;;-2.45;97.94;99797.31;2089776;28;20202;-72
2021/03/07 03:44:09;;;;;;;25.75;16.33;;;;;;;-2.44;98.85;99795.50;2089303;28;20235;-72
2021/03/07 03:45:27;;;;;;;25.65;16.60;;;;;;;-2.49;98.39;99788.25;2083785;28;20315;-72
2021/03/07 03:46:48;;;;;;;23.88;16.15;;;;;;;-2.45;98.72;99789.47;2090364;28;20278;-73
2021/03/07 03:48:10;;;;;;;23.83;16.02;;;;;;;-2.47;98.93;99791.47;2095339;28;20264;-75
2021/03/07 03:49:34;;;;;;;21.25;16.40;;;;;;;-2.48;99.10;99791.69;2089350;28;20736;-74
2021/03/07 03:50:56;;;;;;;26.90;17.50;;;;;;;-2.45;98.48;99805.16;2089872;28;20655;-74
2021/03/07 03:52:16;;;;;;;22.77;17.15;;;;;;;-2.50;98.73;99781.44;2090141;28;20344;-74
2021/03/07 03:53:38;;;;;;;27.25;17.30;;;;;;;-2.41;98.11;99785.50;2088412;28;20199;-74
2021/03/07 03:54:58;;;;;;;24.75;17.30;;;;;;;-2.47;98.44;99791.47;2089998;28;20194;-73
2021/03/07 03:56:17;;;;;;;27.90;16.77;;;;;;;-2.48;98.94;99786.47;2089395;28;20198;-74
2021/03/07 03:57:48;;;;;;;25.67;17.52;;;;;;;-2.56;99.24;99779.59;2083271;28;20282;-74
2021/03/07 03:59:10;;;;;;;24.30;17.15;;;;;;;-2.49;98.82;99798.72;2089735;28;20211;-74
2021/03/07 04:00:29;;;;;;;23.10;16.88;;;;;;;-2.49;99.12;99797.91;2089692;28;20592;-73
2021/03/07 04:01:52;;;;;;;22.92;16.83;;;;;;;-2.54;99.10;99795.88;2084688;28;20577;-73
2021/03/07 04:03:13;;;;;;;24.80;17.02;;;;;;;-2.54;99.26;99795.88;2091198;28;20603;-74
2021/03/07 04:04:34;;;;;;;24.95;17.17;;;;;;;-2.56;99.60;99797.88;2091695;28;20265;-73
2021/03/07 04:05:53;;;;;;;24.50;16.80;;;;;;;-2.62;99.83;99799.44;2091698;28;20564;-74
2021/03/07 04:07:13;;;;;;;21.73;16.55;;;;;;;-2.59;99.96;99799.06;2090820;28;20247;-74
2021/03/07 04:08:28;;;;;;;22.17;16.98;;;;;;;-2.60;99.28;99791.44;2083751;28;20253;-74
2021/03/07 04:09:48;;;;;;;26.80;17.33;;;;;;;-2.55;100.00;99794.25;2091282;28;20194;-73
2021/03/07 04:11:10;;;;;;;24.85;16.65;;;;;;;-2.55;99.42;99794.25;2090753;28;20225;-74
2021/03/07 04:12:32;;;;;;;32.05;17.85;;;;;;;-2.57;99.39;99797.06;2084148;28;20203;-73
2021/03/07 04:14:03;;;;;;;27.13;18.08;;;;;;;-2.59;99.74;99791.22;2085636;28;20273;-73
2021/03/07 04:15:24;;;;;;;23.50;16.80;;;;;;;-2.59;100.00;99786.00;2091115;28;20202;-73
2021/03/07 04:16:47;;;;;;;26.00;17.45;;;;;;;-2.58;99.80;99784.19;2091440;28;20187;-74
2021/03/07 04:18:04;;;;;;;26.80;17.00;;;;;;;-2.56;99.54;99779.59;2091565;28;20206;-73
2021/03/07 04:19:24;;;;;;;23.33;16.60;;;;;;;-2.46;99.30;99789.69;2090155;28;20685;-74
2021/03/07 04:20:42;;;;;;;25.00;16.98;;;;;;;-2.49;99.91;99777.81;2091021;28;20197;-74
2021/03/07 04:22:06;;;;;;;26.45;17.70;;;;;;;-2.52;99.27;99782.59;2091365;28;20167;-74
2021/03/07 04:23:25;;;;;;;27.60;17.85;;;;;;;-2.61;99.94;99768.88;2089644;28;20751;-72
2021/03/07 04:24:46;;;;;;;25.83;18.42;;;;;;;-2.56;100.00;99780.38;2090947;28;20645;-74
2021/03/07 04:26:09;;;;;;;26.90;17.65;;;;;;;-2.48;99.91;99779.44;2091419;28;20202;-74
2021/03/07 04:27:36;;;;;;;28.80;17.85;;;;;;;-2.49;99.77;99783.03;2091359;28;20256;-74
2021/03/07 04:29:03;;;;;;;27.40;18.05;;;;;;;-2.55;100.00;99778.56;2091287;28;20660;-74
2021/03/07 04:30:25;;;;;;;27.73;17.30;;;;;;;-2.57;100.00;99772.75;2090674;28;20621;-74
2021/03/07 04:31:47;;;;;;;27.67;17.00;;;;;;;-2.71;100.00;99765.81;2091150;28;20205;-75
2021/03/07 04:33:07;;;;;;;28.73;19.17;;;;;;;-2.64;100.00;99777.13;2091635;28;20171;-74
2021/03/07 04:34:28;;;;;;;28.65;17.35;;;;;;;-2.70;100.00;99778.69;2090620;28;20564;-73
2021/03/07 04:35:52;;;;;;;25.98;16.35;;;;;;;-2.75;100.00;99767.22;2083417;28;20201;-73
2021/03/07 04:37:15;;;;;;;28.73;16.92;;;;;;;-2.83;100.00;99770.78;2090914;28;20270;-74
2021/03/07 04:38:33;;;;;;;28.23;15.45;;;;;;;-2.80;100.00;99774.81;2090538;28;20218;-73
2021/03/07 04:39:57;;;;;;;27.70;17.15;;;;;;;-2.81;100.00;99774.00;2083656;28;20202;-74
2021/03/07 04:41:18;;;;;;;23.67;16.00;;;;;;;-2.83;100.00;99764.75;2085631;28;20190;-74
2021/03/07 04:42:43;;;;;;;20.05;15.30;;;;;;;-2.78;100.00;99760.59;2082959;28;20612;-74
2021/03/07 04:44:12;;;;;;;21.55;15.88;;;;;;;-2.80;100.00;99764.38;2091025;28;20191;-73
2021/03/07 04:45:31;;;;;;;19.67;15.80;;;;;;;-2.83;100.00;99759.53;2090486;28;20194;-74
2021/03/07 04:46:55;;;;;;;23.65;15.48;;;;;;;-2.86;100.00;99755.53;2091041;28;20194;-73
2021/03/07 04:48:14;;;;;;;22.70;16.58;;;;;;;-2.86;100.00;99761.53;2091520;28;20171;-74
2021/03/07 04:49:38;;;;;;;24.98;16.60;;;;;;;-2.87;100.00;99759.09;2089285;28;20317;-74
2021/03/07 04:50:59;;;;;;;20.50;16.20;;;;;;;-2.89;100.00;99750.66;2090835;28;20210;-74
2021/03/07 04:52:22;;;;;;;26.35;16.40;;;;;;;-2.84;100.00;99753.50;2089494;28;20780;-74
2021/03/07 04:53:44;;;;;;;30.27;17.00;;;;;;;-2.85;100.00;99750.09;2090748;28;20195;-74
2021/03/07 04:55:08;;;;;;;26.08;15.80;;;;;;;-2.91;100.00;99735.19;2089495;28;20332;-74
2021/03/07 04:56:22;;;;;;;23.10;15.95;;;;;;;-2.97;100.00;99732.53;2090933;28;20187;-73
2021/03/07 04:57:43;;;;;;;24.05;15.95;;;;;;;-2.90;100.00;99736.81;2089864;28;20282;-73
2021/03/07 04:59:04;;;;;;;24.45;16.15;;;;;;;-2.95;100.00;99736.59;2090739;28;20203;-74
2021/03/07 05:00:29;;;;;;;21.70;16.75;;;;;;;-2.94;100.00;99732.97;2091214;28;20171;-75
2021/03/07 05:01:49;;;;;;;18.23;14.35;;;;;;;-2.98;100.00;99726.50;2091265;28;20198;-73
2021/03/07 05:03:14;;;;;;;23.42;15.63;;;;;;;-2.93;100.00;99726.75;2091267;28;20179;-74
2021/03/07 05:04:30;;;;;;;21.83;15.38;;;;;;;-2.98;100.00;99720.47;2091219;28;20198;-74
2021/03/07 05:05:53;;;;;;;22.70;15.32;;;;;;;-3.00;100.00;99723.28;2089329;28;20201;-74
2021/03/07 05:07:10;;;;;;;22.70;15.20;;;;;;;-2.98;100.00;99716.06;2092498;28;20198;-74
2021/03/07 05:08:29;;;;;;;19.45;14.60;;;;;;;-2.98;100.00;99710.84;2090314;28;20191;-74
2021/03/07 05:09:43;;;;;;;21.45;15.73;;;;;;;-2.93;100.00;99713.69;2091657;28;20614;-73
2021/03/07 05:11:05;;;;;;;26.92;16.20;;;;;;;-3.00;100.00;99706.81;2090115;28;20190;-74
2021/03/07 05:12:25;;;;;;;22.20;15.95;;;;;;;-2.95;100.00;99715.69;2092857;28;20209;-74
2021/03/07 05:13:42;;;;;;;24.23;16.95;;;;;;;-2.99;100.00;99714.47;2089281;28;20290;-74
2021/03/07 05:15:13;;;;;;;23.25;16.30;;;;;;;-2.92;100.00;99714.50;2090620;28;20245;-73
2021/03/07 05:16:40;;;;;;;23.17;15.30;;;;;;;-2.95;100.00;99720.91;2090305;28;20218;-74
2021/03/07 05:18:01;;;;;;;22.80;15.95;;;;;;;-2.97;100.00;99720.28;2084993;28;20729;-73
2021/03/07 05:19:20;;;;;;;22.15;15.88;;;;;;;-2.92;100.00;99715.31;2090640;28;20172;-74
2021/03/07 05:20:42;;;;;;;26.85;15.93;;;;;;;-2.94;100.00;99711.28;2091092;28;20666;-74
2021/03/07 05:22:01;;;;;;;22.25;15.85;;;;;;;-2.94;100.00;99706.06;2090750;28;20260;-74
2021/03/07 05:23:28;;;;;;;23.48;15.75;;;;;;;-2.91;100.00;99716.13;2090891;28;20187;-73
2021/03/07 05:24:46;;;;;;;24.20;15.80;;;;;;;-2.95;100.00;99715.69;2089293;28;20264;-73
2021/03/07 05:26:07;;;;;;;25.70;15.85;;;;;;;-2.90;100.00;99718.53;2090460;28;20665;-74
2021/03/07 05:27:23;;;;;;;21.80;15.60;;;;;;;-2.88;100.00;99720.94;2089306;28;20207;-73
2021/03/07 05:28:47;;;;;;;25.25;16.55;;;;;;;-2.96;100.00;99703.63;2084024;28;20204;-75
2021/03/07 05:30:14;;;;;;;25.98;16.83;;;;;;;-2.98;100.00;99708.22;2090470;28;20213;-73
2021/03/07 05:31:45;;;;;;;22.65;16.73;;;;;;;-2.94;100.00;99722.53;2088313;28;20278;-73
2021/03/07 05:33:11;;;;;;;25.73;16.00;;;;;;;-2.95;100.00;99720.91;2085036;28;20198;-73
2021/03/07 05:34:25;;;;;;;29.00;17.27;;;;;;;-2.97;100.00;99717.66;2083816;28;20241;-73
2021/03/07 05:35:48;;;;;;;25.35;16.67;;;;;;;-2.95;100.00;99715.69;2090385;28;20567;-73
2021/03/07 05:37:06;;;;;;;26.58;17.02;;;;;;;-3.03;100.00;99708.03;2089993;28;20705;-73
2021/03/07 05:38:31;;;;;;;26.30;17.40;;;;;;;-3.01;100.00;99708.63;2090404;28;20609;-73
2021/03/07 05:39:48;;;;;;;29.33;17.58;;;;;;;-2.99;100.00;99708.44;2090950;28;20278;-73
2021/03/07 05:41:10;;;;;;;26.05;17.42;;;;;;;-3.01;100.00;99703.41;2090392;28;20190;-73
2021/03/07 05:42:28;;;;;;;24.90;17.25;;;;;;;-2.97;100.00;99707.22;2090368;28;20602;-73
2021/03/07 05:43:51;;;;;;;26.77;17.25;;;;;;;-2.98;100.00;99708.22;2090770;28;20194;-73
2021/03/07 05:45:20;;;;;;;22.27;17.27;;;;;;;-2.99;100.00;99698.00;2090782;28;20602;-73
2021/03/07 05:46:39;;;;;;;26.77;17.73;;;;;;;-3.01;100.00;99706.03;2090731;28;20253;-73
2021/03/07 05:48:00;;;;;;;25.58;17.77;;;;;;;-3.01;100.00;99705.22;2090335;28;20203;-73
2021/03/07 05:49:28;;;;;;;29.30;18.88;;;;;;;-3.06;100.00;99702.38;2083968;28;20234;-74
2021/03/07 05:50:47;;;;;;;23.48;18.00;;;;;;;-3.11;100.00;99695.13;2084175;28;20603;-73
2021/03/07 05:52:13;;;;;;;27.63;18.20;;;;;;;-3.03;100.00;99708.03;2088851;28;20199;-73
2021/03/07 05:53:34;;;;;;;26.45;17.23;;;;;;;-3.05;100.00;99698.75;2090333;28;20198;-73
2021/03/07 05:54:53;;;;;;;27.48;18.42;;;;;;;-3.05;100.00;99699.56;2089847;28;20202;-73
2021/03/07 05:56:18;;;;;;;24.95;17.75;;;;;;;-2.95;100.00;99697.44;2090261;28;20562;-72
2021/03/07 05:57:38;;;;;;;26.20;17.58;;;;;;;-2.91;100.00;99705.66;2090662;28;20193;-72
2021/03/07 05:59:03;;;;;;;25.08;17.08;;;;;;;-2.93;100.00;99705.88;2088901;28;20190;-74
2021/03/07 06:00:33;;;;;;;25.90;17.60;;;;;;;-2.89;100.00;99699.25;2093275;28;20205;-73
2021/03/07 06:01:54;;;;;;;25.77;17.63;;;;;;;-2.87;100.00;99697.28;2088964;28;20333;-74
2021/03/07 06:03:19;;;;;;;29.70;18.50;;;;;;;-2.87;100.00;99707.72;2090250;28;20270;-74
2021/03/07 06:04:37;;;;;;;28.17;18.83;;;;;;;-2.83;100.00;99691.66;2090947;28;20277;-74
2021/03/07 06:05:59;;;;;;;25.17;17.05;;;;;;;-2.84;100.00;99701.28;2090610;28;20216;-73
2021/03/07 06:07:20;;;;;;;27.10;19.27;;;;;;;-2.82;100.00;99698.50;2090739;28;20206;-75
2021/03/07 06:08:44;;;;;;;25.20;17.95;;;;;;;-2.81;100.00;99700.91;2090810;28;20194;-74
2021/03/07 06:10:18;;;;;;;24.50;17.48;;;;;;;-2.80;100.00;99697.28;2088757;28;20207;-73
2021/03/07 06:11:48;;;;;;;24.92;18.10;;;;;;;-2.78;100.00;99697.09;2090452;28;20176;-73
2021/03/07 06:13:16;;;;;;;25.70;18.40;;;;;;;-2.81;100.00;99693.06;2090558;28;20195;-74
2021/03/07 06:14:38;;;;;;;25.92;18.85;;;;;;;-2.72;100.00;99693.72;2088908;28;20730;-74